createdAt,value
2023-02-08T00:01:28.010Z,8.47
2023-02-08T00:06:32.781Z,8.03
2023-02-08T00:11:35.976Z,7.77
2023-02-08T00:16:39.158Z,7.20
2023-02-08T00:21:43.718Z,6.80
2023-02-08T00:26:46.809Z,7.53
2023-02-08T00:31:49.992Z,7.83
2023-02-08T00:36:54.504Z,7.53
2023-02-08T00:41:57.704Z,7.00
2023-02-08T00:47:00.808Z,7.47
2023-02-08T00:52:05.350Z,7.20
2023-02-08T00:57:08.614Z,5.97
2023-02-08T01:02:12.096Z,6.47
2023-02-08T01:07:16.563Z,6.77
2023-02-08T01:12:19.674Z,6.03
2023-02-08T01:17:23.304Z,5.77
2023-02-08T01:22:29.652Z,6.23
2023-02-08T01:27:33.184Z,5.53
2023-02-08T01:32:36.386Z,6.17
2023-02-08T01:37:40.997Z,5.53
2023-02-08T01:42:44.126Z,6.03
2023-02-08T01:47:49.656Z,5.83
2023-02-08T01:52:54.716Z,6.07
2023-02-08T01:58:01.399Z,5.77
2023-02-08T02:03:05.754Z,6.07
2023-02-08T02:08:11.085Z,6.37
2023-02-08T02:13:17.759Z,6.20
2023-02-08T02:18:25.553Z,6.33
2023-02-08T02:23:56.091Z,6.87
2023-02-08T02:29:49.011Z,6.83
2023-02-08T02:35:01.436Z,7.23
2023-02-08T02:40:16.005Z,7.43
2023-02-08T02:45:27.825Z,7.60
2023-02-08T02:50:36.064Z,8.20
2023-02-08T02:55:44.558Z,8.87
2023-02-08T03:00:53.734Z,7.67
2023-02-08T03:06:01.831Z,8.47
2023-02-08T03:11:20.454Z,8.37
2023-02-08T03:16:32.820Z,8.30
2023-02-08T03:21:44.214Z,8.93
2023-02-08T03:26:54.628Z,8.53
2023-02-08T03:32:01.752Z,8.87
2023-02-08T03:37:10.910Z,8.90
2023-02-08T03:42:28.240Z,8.57
2023-02-08T03:47:35.296Z,9.07
2023-02-08T03:52:40.720Z,10.03
2023-02-08T03:57:49.353Z,9.23
2023-02-08T04:02:58.116Z,9.13
2023-02-08T04:08:02.592Z,10.13
2023-02-08T04:13:05.731Z,9.47
2023-02-08T04:18:08.930Z,9.63
2023-02-08T04:23:13.341Z,9.50
2023-02-08T04:28:16.609Z,9.47
2023-02-08T04:33:19.691Z,10.03
2023-02-08T04:38:24.140Z,9.03
2023-02-08T04:43:27.249Z,9.50
2023-02-08T04:48:30.583Z,9.57
2023-02-08T04:53:35.031Z,9.53
2023-02-08T04:58:38.162Z,9.97
2023-02-08T05:03:41.248Z,8.60
2023-02-08T05:08:45.756Z,9.67
2023-02-08T05:13:48.950Z,9.37
2023-02-08T05:18:52.029Z,9.07
2023-02-08T05:23:56.494Z,9.40
2023-02-08T05:28:59.754Z,9.50
2023-02-08T05:34:02.802Z,8.23
2023-02-08T05:39:07.368Z,9.00
2023-02-08T05:44:10.442Z,9.07
2023-02-08T05:49:13.800Z,8.43
2023-02-08T05:54:18.672Z,8.40
2023-02-08T05:59:21.773Z,9.87
2023-02-08T06:04:24.946Z,9.10
2023-02-08T06:09:29.471Z,9.10
2023-02-08T06:14:32.553Z,9.60
2023-02-08T06:19:35.630Z,8.97
2023-02-08T06:24:40.115Z,7.90
2023-02-08T06:29:44.187Z,9.17
2023-02-08T06:34:48.277Z,9.20
2023-02-08T06:39:52.711Z,9.47
2023-02-08T06:44:56.074Z,8.97
2023-02-08T06:49:59.184Z,9.07
2023-02-08T06:55:03.669Z,9.83
2023-02-08T07:00:07.756Z,9.53
2023-02-08T07:05:10.834Z,9.80
2023-02-08T07:10:15.622Z,9.60
2023-02-08T07:15:18.830Z,10.40
2023-02-08T07:20:22.053Z,10.10
2023-02-08T07:25:26.496Z,10.70
2023-02-08T07:30:29.905Z,10.40
2023-02-08T07:35:33.031Z,10.97
2023-02-08T07:40:37.530Z,10.10
2023-02-08T07:45:40.614Z,10.80
2023-02-08T07:50:43.676Z,10.87
2023-02-08T07:55:48.580Z,10.23
2023-02-08T08:00:51.673Z,10.67
2023-02-08T08:05:55.075Z,11.37
2023-02-08T08:10:59.548Z,11.03
2023-02-08T08:16:02.682Z,11.63
2023-02-08T08:21:06.391Z,11.33
2023-02-08T08:26:13.938Z,11.93
2023-02-08T08:31:19.115Z,12.53
2023-02-08T08:36:22.275Z,12.57
2023-02-08T08:41:27.310Z,12.17
2023-02-08T08:46:30.469Z,12.57
2023-02-08T08:51:35.505Z,12.47
2023-02-08T08:56:40.217Z,12.80
2023-02-08T09:01:43.327Z,12.20
2023-02-08T09:06:46.453Z,12.10
2023-02-08T09:11:51.382Z,13.33
2023-02-08T09:16:54.903Z,11.70
2023-02-08T09:21:58.041Z,13.00
2023-02-08T09:27:02.812Z,13.53
2023-02-08T09:32:06.132Z,13.73
2023-02-08T09:37:09.201Z,13.80
2023-02-08T09:42:39.426Z,13.83
2023-02-08T09:47:49.779Z,13.30
2023-02-08T09:52:58.190Z,13.23
2023-02-08T09:58:05.648Z,13.07
2023-02-08T10:03:24.753Z,12.67
2023-02-08T10:08:35.186Z,12.90
2023-02-08T10:14:01.313Z,12.63
2023-02-08T10:19:15.691Z,12.70
2023-02-08T10:24:41.750Z,11.83
2023-02-08T10:30:15.846Z,12.20
2023-02-08T10:35:26.924Z,12.33
2023-02-08T10:40:38.929Z,12.30
2023-02-08T10:45:50.687Z,12.07
2023-02-08T10:50:53.973Z,13.60
2023-02-08T10:55:57.142Z,13.50
2023-02-08T11:01:03.876Z,12.40
2023-02-08T11:06:17.116Z,12.17
2023-02-08T11:11:20.243Z,12.17
2023-02-08T11:16:27.400Z,11.73
2023-02-08T11:21:33.701Z,12.57
2023-02-08T11:26:38.780Z,11.60
2023-02-08T11:31:59.293Z,10.87
2023-02-08T11:37:06.530Z,10.63
2023-02-08T11:42:20.775Z,10.73
2023-02-08T11:47:29.239Z,9.63
2023-02-08T11:52:35.495Z,8.87
2023-02-08T11:57:53.984Z,9.10
2023-02-08T12:03:01.164Z,9.03
2023-02-08T12:08:12.529Z,10.30
2023-02-08T12:13:42.072Z,9.17
2023-02-08T12:19:06.342Z,9.63
2023-02-08T12:24:19.802Z,9.67
2023-02-08T12:29:48.357Z,10.93
2023-02-08T12:35:06.343Z,10.37
2023-02-08T12:40:41.390Z,10.57
2023-02-08T12:46:07.987Z,10.73
2023-02-08T12:51:24.126Z,10.90
2023-02-08T12:56:32.792Z,10.47
2023-02-08T13:01:40.462Z,11.17
2023-02-08T13:06:49.494Z,11.20
2023-02-08T13:11:58.750Z,10.43
2023-02-08T13:17:11.003Z,11.57
2023-02-08T13:22:17.187Z,10.83
2023-02-08T13:27:22.234Z,10.40
2023-02-08T13:32:30.449Z,10.73
2023-02-08T13:37:36.929Z,11.63
2023-02-08T13:42:43.691Z,9.90
2023-02-08T13:47:52.022Z,10.37
2023-02-08T13:52:56.517Z,9.43
2023-02-08T13:58:00.753Z,10.17
2023-02-08T14:03:20.802Z,10.37
2023-02-08T14:08:32.060Z,9.83
2023-02-08T14:13:39.070Z,10.20
2023-02-08T14:18:52.820Z,9.67
2023-02-08T14:24:03.913Z,9.37
2023-02-08T14:29:08.057Z,9.23
2023-02-08T14:34:35.064Z,9.53
2023-02-08T14:39:39.717Z,9.03
2023-02-08T14:44:48.979Z,8.83
2023-02-08T14:50:02.913Z,9.27
2023-02-08T14:55:14.500Z,8.37
2023-02-08T15:00:23.034Z,8.83
2023-02-08T15:05:31.090Z,8.43
2023-02-08T15:10:36.246Z,8.80
2023-02-08T15:15:42.069Z,7.60
2023-02-08T15:20:46.288Z,9.20
2023-02-08T15:25:58.795Z,9.23
2023-02-08T15:31:05.200Z,8.70
2023-02-08T15:36:15.765Z,9.17
2023-02-08T15:41:27.811Z,8.47
2023-02-08T15:46:31.850Z,9.00
2023-02-08T15:51:35.242Z,9.50
2023-02-08T15:56:42.507Z,9.47
2023-02-08T16:01:48.490Z,9.77
2023-02-08T16:06:54.955Z,8.57
2023-02-08T16:12:01.568Z,8.30
2023-02-08T16:17:04.872Z,9.30
2023-02-08T16:22:26.687Z,8.90
2023-02-08T16:27:33.811Z,8.53
2023-02-08T16:32:39.637Z,8.70
2023-02-08T16:37:43.384Z,8.50
2023-02-08T16:42:47.880Z,9.10
2023-02-08T16:47:53.262Z,6.80
2023-02-08T16:53:00.091Z,7.77
2023-02-08T16:58:04.569Z,8.67
2023-02-08T17:03:07.666Z,8.67
2023-02-08T17:08:16.631Z,9.07
2023-02-08T17:13:24.356Z,8.73
2023-02-08T17:18:27.890Z,8.43
2023-02-08T17:23:31.054Z,8.50
2023-02-08T17:28:38.538Z,7.13
2023-02-08T17:33:42.301Z,8.30
2023-02-08T17:38:46.784Z,8.53
2023-02-08T17:43:53.537Z,7.80
2023-02-08T17:48:56.618Z,7.73
2023-02-08T17:53:59.739Z,8.93
2023-02-08T17:59:05.656Z,9.13
2023-02-08T18:04:11.199Z,9.03
2023-02-08T18:09:14.323Z,7.80
2023-02-08T18:14:20.411Z,7.93
2023-02-08T18:19:23.625Z,8.07
2023-02-08T18:24:27.347Z,6.40
2023-02-08T18:29:31.812Z,5.60
2023-02-08T18:34:35.108Z,7.40
2023-02-08T18:39:38.551Z,7.20
2023-02-08T18:44:43.258Z,6.90
2023-02-08T18:49:47.721Z,6.40
2023-02-08T18:54:51.005Z,7.70
2023-02-08T18:59:56.096Z,7.97
2023-02-08T19:04:59.331Z,7.63
2023-02-08T19:10:02.726Z,7.17
2023-02-08T19:15:08.186Z,7.37
2023-02-08T19:20:12.189Z,7.77
2023-02-08T19:25:15.303Z,6.20
2023-02-08T19:30:21.921Z,6.10
2023-02-08T19:35:25.130Z,5.57
2023-02-08T19:40:28.288Z,6.20
2023-02-08T19:45:32.877Z,5.77
2023-02-08T19:50:36.032Z,4.40
2023-02-08T19:55:39.257Z,4.67
2023-02-08T20:00:43.942Z,11.40
2023-02-08T20:05:47.766Z,10.87
2023-02-08T20:10:51.059Z,8.30
2023-02-08T20:15:59.764Z,4.97
2023-02-08T20:21:03.858Z,4.00
2023-02-08T20:26:09.923Z,4.20
2023-02-08T20:31:16.880Z,4.03
2023-02-08T20:36:22.160Z,4.07
2023-02-08T20:41:27.801Z,4.33
2023-02-08T20:46:34.697Z,4.03
2023-02-08T20:51:38.154Z,5.03
2023-02-08T20:56:41.408Z,7.20
2023-02-08T21:01:50.118Z,5.40
2023-02-08T21:06:53.783Z,4.63
2023-02-08T21:11:57.128Z,4.97
2023-02-08T21:17:01.913Z,4.40
2023-02-08T21:22:07.583Z,4.33
2023-02-08T21:27:10.780Z,4.13
2023-02-08T21:32:15.305Z,4.20
2023-02-08T21:37:18.443Z,4.07
2023-02-08T21:42:21.594Z,4.33
2023-02-08T21:47:26.334Z,3.90
2023-02-08T21:52:46.648Z,3.67
2023-02-08T21:57:49.788Z,4.23
2023-02-08T22:02:54.343Z,5.30
2023-02-08T22:07:59.297Z,4.20
2023-02-08T22:13:02.559Z,3.90
2023-02-08T22:18:07.345Z,3.57
2023-02-08T22:23:10.510Z,3.63
2023-02-08T22:28:13.804Z,3.97
2023-02-08T22:33:18.318Z,4.20
2023-02-08T22:38:21.506Z,3.80
2023-02-08T22:43:24.662Z,3.83
2023-02-08T22:48:29.440Z,3.53
2023-02-08T22:53:32.562Z,4.47
2023-02-08T22:58:35.784Z,3.90
2023-02-08T23:03:42.609Z,3.70
2023-02-08T23:08:46.071Z,4.10
2023-02-08T23:13:49.200Z,4.20
2023-02-08T23:18:53.814Z,3.73
2023-02-08T23:23:57.123Z,4.00
2023-02-08T23:29:00.312Z,3.50
2023-02-08T23:34:04.799Z,3.23
2023-02-08T23:39:07.955Z,3.60
2023-02-08T23:44:11.076Z,2.87
2023-02-08T23:49:15.542Z,3.20
2023-02-08T23:54:18.635Z,3.17
2023-02-08T23:59:21.779Z,3.00
